sensor_id;sensor_type;location;lat;lon;timestamp;P1;durP1;ratioP1;P2;durP2;ratioP2
62554;SDS011;48610;52.144;8.624;2024-03-06T00:01:52;16.25;;;9.63;;
62554;SDS011;48610;52.144;8.624;2024-03-06T00:04:53;15.80;;;9.43;;
62554;SDS011;48610;52.144;8.624;2024-03-06T00:07:54;17.65;;;9.65;;
62554;SDS011;48610;52.144;8.624;2024-03-06T00:10:54;17.58;;;9.43;;
62554;SDS011;48610;52.144;8.624;2024-03-06T00:13:55;19.38;;;10.77;;
62554;SDS011;48610;52.144;8.624;2024-03-06T00:16:55;15.38;;;9.90;;
62554;SDS011;48610;52.144;8.624;2024-03-06T00:19:56;16.33;;;10.07;;
62554;SDS011;48610;52.144;8.624;2024-03-06T00:22:56;19.30;;;10.05;;
62554;SDS011;48610;52.144;8.624;2024-03-06T00:25:59;15.93;;;10.40;;
62554;SDS011;48610;52.144;8.624;2024-03-06T00:28:59;20.65;;;10.07;;
62554;SDS011;48610;52.144;8.624;2024-03-06T00:32:00;19.40;;;11.15;;
62554;SDS011;48610;52.144;8.624;2024-03-06T00:35:00;18.00;;;10.55;;
62554;SDS011;48610;52.144;8.624;2024-03-06T00:38:01;16.30;;;10.23;;
62554;SDS011;48610;52.144;8.624;2024-03-06T00:41:02;14.88;;;9.30;;
62554;SDS011;48610;52.144;8.624;2024-03-06T00:44:04;16.77;;;10.95;;
62554;SDS011;48610;52.144;8.624;2024-03-06T00:47:05;15.00;;;10.32;;
62554;SDS011;48610;52.144;8.624;2024-03-06T00:50:06;19.17;;;11.98;;
62554;SDS011;48610;52.144;8.624;2024-03-06T00:53:07;22.05;;;10.75;;
62554;SDS011;48610;52.144;8.624;2024-03-06T00:56:08;18.05;;;11.30;;
62554;SDS011;48610;52.144;8.624;2024-03-06T00:59:08;17.25;;;11.40;;
62554;SDS011;48610;52.144;8.624;2024-03-06T01:02:09;17.38;;;10.52;;
62554;SDS011;48610;52.144;8.624;2024-03-06T01:05:09;20.67;;;10.38;;
62554;SDS011;48610;52.144;8.624;2024-03-06T01:08:10;18.73;;;10.07;;
62554;SDS011;48610;52.144;8.624;2024-03-06T01:11:11;18.92;;;10.68;;
62554;SDS011;48610;52.144;8.624;2024-03-06T01:14:14;17.40;;;10.85;;
62554;SDS011;48610;52.144;8.624;2024-03-06T01:17:16;16.55;;;10.73;;
62554;SDS011;48610;52.144;8.624;2024-03-06T01:20:17;22.60;;;11.63;;
62554;SDS011;48610;52.144;8.624;2024-03-06T01:23:18;17.75;;;11.98;;
62554;SDS011;48610;52.144;8.624;2024-03-06T01:26:18;14.15;;;10.90;;
62554;SDS011;48610;52.144;8.624;2024-03-06T01:29:19;19.67;;;10.57;;
62554;SDS011;48610;52.144;8.624;2024-03-06T01:32:19;13.88;;;9.55;;
62554;SDS011;48610;52.144;8.624;2024-03-06T01:35:20;21.33;;;10.55;;
62554;SDS011;48610;52.144;8.624;2024-03-06T01:38:21;14.43;;;10.23;;
62554;SDS011;48610;52.144;8.624;2024-03-06T01:41:21;17.35;;;10.15;;
62554;SDS011;48610;52.144;8.624;2024-03-06T01:44:22;16.05;;;10.13;;
62554;SDS011;48610;52.144;8.624;2024-03-06T01:47:23;15.20;;;9.05;;
62554;SDS011;48610;52.144;8.624;2024-03-06T01:50:23;21.02;;;10.23;;
62554;SDS011;48610;52.144;8.624;2024-03-06T01:53:24;18.70;;;10.45;;
62554;SDS011;48610;52.144;8.624;2024-03-06T01:56:24;17.38;;;10.18;;
62554;SDS011;48610;52.144;8.624;2024-03-06T01:59:26;14.52;;;9.60;;
62554;SDS011;48610;52.144;8.624;2024-03-06T02:02:28;16.83;;;9.88;;
62554;SDS011;48610;52.144;8.624;2024-03-06T02:05:30;17.98;;;10.57;;
62554;SDS011;48610;52.144;8.624;2024-03-06T02:08:31;15.18;;;9.75;;
62554;SDS011;48610;52.144;8.624;2024-03-06T02:11:33;18.67;;;9.15;;
62554;SDS011;48610;52.144;8.624;2024-03-06T02:14:34;15.55;;;9.75;;
62554;SDS011;48610;52.144;8.624;2024-03-06T02:17:35;19.30;;;9.32;;
62554;SDS011;48610;52.144;8.624;2024-03-06T02:20:39;14.13;;;9.40;;
62554;SDS011;48610;52.144;8.624;2024-03-06T02:23:40;13.82;;;9.68;;
62554;SDS011;48610;52.144;8.624;2024-03-06T02:26:40;14.73;;;9.07;;
62554;SDS011;48610;52.144;8.624;2024-03-06T02:29:41;18.33;;;9.43;;
62554;SDS011;48610;52.144;8.624;2024-03-06T02:32:41;18.10;;;9.68;;
62554;SDS011;48610;52.144;8.624;2024-03-06T02:35:43;11.90;;;8.57;;
62554;SDS011;48610;52.144;8.624;2024-03-06T02:38:46;17.27;;;9.27;;
62554;SDS011;48610;52.144;8.624;2024-03-06T02:41:46;16.00;;;9.13;;
62554;SDS011;48610;52.144;8.624;2024-03-06T02:44:47;15.63;;;9.43;;
62554;SDS011;48610;52.144;8.624;2024-03-06T02:47:48;14.88;;;9.90;;
62554;SDS011;48610;52.144;8.624;2024-03-06T02:50:49;14.18;;;9.05;;
62554;SDS011;48610;52.144;8.624;2024-03-06T02:53:49;14.73;;;9.50;;
62554;SDS011;48610;52.144;8.624;2024-03-06T02:56:53;17.45;;;9.50;;
62554;SDS011;48610;52.144;8.624;2024-03-06T02:59:54;17.60;;;9.68;;
62554;SDS011;48610;52.144;8.624;2024-03-06T03:02:56;19.70;;;9.63;;
62554;SDS011;48610;52.144;8.624;2024-03-06T03:05:57;15.90;;;9.90;;
62554;SDS011;48610;52.144;8.624;2024-03-06T03:08:57;15.52;;;8.63;;
62554;SDS011;48610;52.144;8.624;2024-03-06T03:11:58;15.95;;;9.93;;
62554;SDS011;48610;52.144;8.624;2024-03-06T03:14:59;15.90;;;8.95;;
62554;SDS011;48610;52.144;8.624;2024-03-06T03:17:59;18.92;;;10.10;;
62554;SDS011;48610;52.144;8.624;2024-03-06T03:21:00;14.43;;;9.70;;
62554;SDS011;48610;52.144;8.624;2024-03-06T03:24:01;16.23;;;8.98;;
62554;SDS011;48610;52.144;8.624;2024-03-06T03:27:03;15.50;;;8.73;;
62554;SDS011;48610;52.144;8.624;2024-03-06T03:30:04;15.43;;;9.25;;
62554;SDS011;48610;52.144;8.624;2024-03-06T03:33:07;21.45;;;9.38;;
62554;SDS011;48610;52.144;8.624;2024-03-06T03:36:08;18.48;;;9.13;;
62554;SDS011;48610;52.144;8.624;2024-03-06T03:39:12;26.08;;;9.10;;
62554;SDS011;48610;52.144;8.624;2024-03-06T03:42:15;15.32;;;9.32;;
62554;SDS011;48610;52.144;8.624;2024-03-06T03:45:16;16.52;;;9.70;;
62554;SDS011;48610;52.144;8.624;2024-03-06T03:48:17;16.10;;;9.60;;
62554;SDS011;48610;52.144;8.624;2024-03-06T03:51:18;13.55;;;9.27;;
62554;SDS011;48610;52.144;8.624;2024-03-06T03:54:19;15.73;;;8.88;;
62554;SDS011;48610;52.144;8.624;2024-03-06T03:57:19;15.32;;;9.75;;
62554;SDS011;48610;52.144;8.624;2024-03-06T04:00:20;14.25;;;9.20;;
62554;SDS011;48610;52.144;8.624;2024-03-06T04:03:22;22.20;;;10.90;;
62554;SDS011;48610;52.144;8.624;2024-03-06T04:06:24;19.10;;;10.32;;
62554;SDS011;48610;52.144;8.624;2024-03-06T04:09:24;21.00;;;10.18;;
62554;SDS011;48610;52.144;8.624;2024-03-06T04:12:25;25.40;;;10.80;;
62554;SDS011;48610;52.144;8.624;2024-03-06T04:15:26;15.98;;;9.80;;
62554;SDS011;48610;52.144;8.624;2024-03-06T04:18:26;14.18;;;9.18;;
62554;SDS011;48610;52.144;8.624;2024-03-06T04:21:27;15.70;;;9.52;;
62554;SDS011;48610;52.144;8.624;2024-03-06T04:24:27;21.13;;;10.07;;
62554;SDS011;48610;52.144;8.624;2024-03-06T04:27:29;16.98;;;10.35;;
62554;SDS011;48610;52.144;8.624;2024-03-06T04:30:29;16.08;;;10.65;;
62554;SDS011;48610;52.144;8.624;2024-03-06T04:33:29;19.73;;;11.38;;
62554;SDS011;48610;52.144;8.624;2024-03-06T04:36:30;13.63;;;9.90;;
62554;SDS011;48610;52.144;8.624;2024-03-06T04:39:31;18.00;;;9.88;;
62554;SDS011;48610;52.144;8.624;2024-03-06T04:42:32;18.88;;;10.35;;
62554;SDS011;48610;52.144;8.624;2024-03-06T04:45:36;15.52;;;9.65;;
62554;SDS011;48610;52.144;8.624;2024-03-06T04:48:36;19.35;;;9.20;;
62554;SDS011;48610;52.144;8.624;2024-03-06T04:51:37;15.68;;;8.65;;
62554;SDS011;48610;52.144;8.624;2024-03-06T04:54:38;12.07;;;8.93;;
62554;SDS011;48610;52.144;8.624;2024-03-06T04:57:39;13.70;;;9.00;;
62554;SDS011;48610;52.144;8.624;2024-03-06T05:00:42;20.23;;;9.65;;
62554;SDS011;48610;52.144;8.624;2024-03-06T05:03:43;13.95;;;9.27;;
62554;SDS011;48610;52.144;8.624;2024-03-06T05:06:43;16.13;;;9.88;;
62554;SDS011;48610;52.144;8.624;2024-03-06T05:09:44;19.30;;;9.45;;
62554;SDS011;48610;52.144;8.624;2024-03-06T05:12:44;16.75;;;10.27;;
62554;SDS011;48610;52.144;8.624;2024-03-06T05:15:45;19.05;;;10.50;;
62554;SDS011;48610;52.144;8.624;2024-03-06T05:18:45;17.52;;;9.82;;
62554;SDS011;48610;52.144;8.624;2024-03-06T05:21:46;15.32;;;10.25;;
62554;SDS011;48610;52.144;8.624;2024-03-06T05:24:46;18.20;;;10.05;;
62554;SDS011;48610;52.144;8.624;2024-03-06T05:27:47;14.30;;;9.65;;
62554;SDS011;48610;52.144;8.624;2024-03-06T05:30:48;14.38;;;10.07;;
62554;SDS011;48610;52.144;8.624;2024-03-06T05:33:49;21.33;;;10.00;;
62554;SDS011;48610;52.144;8.624;2024-03-06T05:36:50;14.90;;;9.70;;
62554;SDS011;48610;52.144;8.624;2024-03-06T05:39:50;14.68;;;9.65;;
62554;SDS011;48610;52.144;8.624;2024-03-06T05:42:51;23.25;;;9.95;;
62554;SDS011;48610;52.144;8.624;2024-03-06T05:45:51;13.18;;;9.68;;
62554;SDS011;48610;52.144;8.624;2024-03-06T05:48:53;15.88;;;9.75;;
62554;SDS011;48610;52.144;8.624;2024-03-06T05:51:53;17.95;;;9.32;;
62554;SDS011;48610;52.144;8.624;2024-03-06T05:54:54;22.67;;;9.82;;
62554;SDS011;48610;52.144;8.624;2024-03-06T05:57:54;22.17;;;9.95;;
62554;SDS011;48610;52.144;8.624;2024-03-06T06:00:55;23.10;;;10.00;;
62554;SDS011;48610;52.144;8.624;2024-03-06T06:03:56;18.13;;;9.63;;
62554;SDS011;48610;52.144;8.624;2024-03-06T06:06:57;14.73;;;9.40;;
62554;SDS011;48610;52.144;8.624;2024-03-06T06:09:57;22.05;;;10.18;;
62554;SDS011;48610;52.144;8.624;2024-03-06T06:12:58;18.25;;;10.40;;
62554;SDS011;48610;52.144;8.624;2024-03-06T06:15:58;15.50;;;9.18;;
62554;SDS011;48610;52.144;8.624;2024-03-06T06:18:59;15.10;;;9.50;;
62554;SDS011;48610;52.144;8.624;2024-03-06T06:22:00;19.30;;;9.75;;
62554;SDS011;48610;52.144;8.624;2024-03-06T06:25:00;15.18;;;9.15;;
62554;SDS011;48610;52.144;8.624;2024-03-06T06:28:01;17.40;;;9.55;;
62554;SDS011;48610;52.144;8.624;2024-03-06T06:31:02;19.77;;;9.43;;
62554;SDS011;48610;52.144;8.624;2024-03-06T06:34:04;19.90;;;10.25;;
62554;SDS011;48610;52.144;8.624;2024-03-06T06:37:04;18.15;;;9.55;;
62554;SDS011;48610;52.144;8.624;2024-03-06T06:40:06;18.05;;;10.07;;
62554;SDS011;48610;52.144;8.624;2024-03-06T06:43:07;18.67;;;10.15;;
62554;SDS011;48610;52.144;8.624;2024-03-06T06:46:08;13.63;;;9.13;;
62554;SDS011;48610;52.144;8.624;2024-03-06T06:49:09;19.17;;;10.63;;
62554;SDS011;48610;52.144;8.624;2024-03-06T06:52:09;16.13;;;10.68;;
62554;SDS011;48610;52.144;8.624;2024-03-06T06:55:10;17.40;;;9.40;;
62554;SDS011;48610;52.144;8.624;2024-03-06T06:58:11;15.60;;;10.02;;
62554;SDS011;48610;52.144;8.624;2024-03-06T07:01:12;16.40;;;10.02;;
62554;SDS011;48610;52.144;8.624;2024-03-06T07:04:12;19.48;;;10.82;;
62554;SDS011;48610;52.144;8.624;2024-03-06T07:07:13;20.58;;;10.18;;
62554;SDS011;48610;52.144;8.624;2024-03-06T07:10:13;16.83;;;10.52;;
62554;SDS011;48610;52.144;8.624;2024-03-06T07:13:14;22.92;;;11.02;;
62554;SDS011;48610;52.144;8.624;2024-03-06T07:16:15;19.17;;;10.77;;
62554;SDS011;48610;52.144;8.624;2024-03-06T07:19:16;18.40;;;10.85;;
62554;SDS011;48610;52.144;8.624;2024-03-06T07:22:17;19.77;;;11.15;;
62554;SDS011;48610;52.144;8.624;2024-03-06T07:25:17;22.15;;;11.15;;
62554;SDS011;48610;52.144;8.624;2024-03-06T07:28:18;19.20;;;10.73;;
62554;SDS011;48610;52.144;8.624;2024-03-06T07:31:19;24.40;;;10.57;;
62554;SDS011;48610;52.144;8.624;2024-03-06T07:34:19;16.02;;;10.20;;
62554;SDS011;48610;52.144;8.624;2024-03-06T07:37:23;19.80;;;10.48;;
62554;SDS011;48610;52.144;8.624;2024-03-06T07:40:23;15.45;;;10.18;;
62554;SDS011;48610;52.144;8.624;2024-03-06T07:43:25;21.50;;;10.00;;
62554;SDS011;48610;52.144;8.624;2024-03-06T07:46:26;20.02;;;10.13;;
62554;SDS011;48610;52.144;8.624;2024-03-06T07:49:27;17.08;;;10.30;;
62554;SDS011;48610;52.144;8.624;2024-03-06T07:52:27;14.00;;;9.05;;
62554;SDS011;48610;52.144;8.624;2024-03-06T07:55:28;21.00;;;9.52;;
62554;SDS011;48610;52.144;8.624;2024-03-06T07:58:29;14.95;;;9.05;;
62554;SDS011;48610;52.144;8.624;2024-03-06T08:01:29;18.30;;;9.32;;
62554;SDS011;48610;52.144;8.624;2024-03-06T08:04:31;19.55;;;8.82;;
62554;SDS011;48610;52.144;8.624;2024-03-06T08:07:32;17.10;;;9.82;;
62554;SDS011;48610;52.144;8.624;2024-03-06T08:10:32;17.10;;;9.27;;
62554;SDS011;48610;52.144;8.624;2024-03-06T08:13:33;18.63;;;10.02;;
62554;SDS011;48610;52.144;8.624;2024-03-06T08:16:34;20.67;;;9.32;;
62554;SDS011;48610;52.144;8.624;2024-03-06T08:19:34;17.15;;;10.02;;
62554;SDS011;48610;52.144;8.624;2024-03-06T08:22:42;23.27;;;10.02;;
62554;SDS011;48610;52.144;8.624;2024-03-06T08:25:43;15.70;;;9.32;;
62554;SDS011;48610;52.144;8.624;2024-03-06T08:28:43;18.38;;;10.18;;
62554;SDS011;48610;52.144;8.624;2024-03-06T08:31:44;20.63;;;10.50;;
62554;SDS011;48610;52.144;8.624;2024-03-06T08:34:44;20.08;;;10.07;;
62554;SDS011;48610;52.144;8.624;2024-03-06T08:37:45;17.80;;;10.55;;
62554;SDS011;48610;52.144;8.624;2024-03-06T08:40:45;23.92;;;10.98;;
62554;SDS011;48610;52.144;8.624;2024-03-06T08:43:46;18.05;;;11.07;;
62554;SDS011;48610;52.144;8.624;2024-03-06T08:46:46;19.70;;;11.25;;
62554;SDS011;48610;52.144;8.624;2024-03-06T08:49:47;20.63;;;11.02;;
62554;SDS011;48610;52.144;8.624;2024-03-06T08:52:47;17.85;;;10.68;;
62554;SDS011;48610;52.144;8.624;2024-03-06T08:55:48;19.25;;;11.00;;
62554;SDS011;48610;52.144;8.624;2024-03-06T08:58:49;18.50;;;11.02;;
62554;SDS011;48610;52.144;8.624;2024-03-06T09:01:51;25.05;;;11.23;;
62554;SDS011;48610;52.144;8.624;2024-03-06T09:04:54;18.55;;;10.63;;
62554;SDS011;48610;52.144;8.624;2024-03-06T09:07:54;14.18;;;9.60;;
62554;SDS011;48610;52.144;8.624;2024-03-06T09:10:57;18.42;;;10.70;;
62554;SDS011;48610;52.144;8.624;2024-03-06T09:13:59;26.33;;;10.23;;
62554;SDS011;48610;52.144;8.624;2024-03-06T09:16:59;21.83;;;11.27;;
62554;SDS011;48610;52.144;8.624;2024-03-06T09:20:00;19.63;;;10.82;;
62554;SDS011;48610;52.144;8.624;2024-03-06T09:23:09;17.50;;;11.20;;
62554;SDS011;48610;52.144;8.624;2024-03-06T09:26:10;18.25;;;10.88;;
62554;SDS011;48610;52.144;8.624;2024-03-06T09:29:10;19.35;;;10.88;;
62554;SDS011;48610;52.144;8.624;2024-03-06T09:32:11;21.15;;;10.48;;
62554;SDS011;48610;52.144;8.624;2024-03-06T09:35:15;29.42;;;11.82;;
62554;SDS011;48610;52.144;8.624;2024-03-06T09:38:17;23.95;;;11.68;;
62554;SDS011;48610;52.144;8.624;2024-03-06T09:41:17;24.52;;;12.07;;
62554;SDS011;48610;52.144;8.624;2024-03-06T09:44:18;23.63;;;12.20;;
62554;SDS011;48610;52.144;8.624;2024-03-06T09:47:21;24.23;;;13.02;;
62554;SDS011;48610;52.144;8.624;2024-03-06T09:50:24;25.08;;;12.70;;
62554;SDS011;48610;52.144;8.624;2024-03-06T09:53:28;26.20;;;13.05;;
62554;SDS011;48610;52.144;8.624;2024-03-06T09:56:30;26.52;;;13.82;;
62554;SDS011;48610;52.144;8.624;2024-03-06T09:59:30;34.25;;;13.70;;
62554;SDS011;48610;52.144;8.624;2024-03-06T10:03:16;27.40;;;13.85;;
62554;SDS011;48610;52.144;8.624;2024-03-06T10:05:57;32.20;;;14.05;;
62554;SDS011;48610;52.144;8.624;2024-03-06T10:09:02;27.30;;;13.07;;
62554;SDS011;48610;52.144;8.624;2024-03-06T10:12:08;22.27;;;12.85;;
62554;SDS011;48610;52.144;8.624;2024-03-06T10:15:12;26.83;;;13.63;;
62554;SDS011;48610;52.144;8.624;2024-03-06T10:18:13;30.27;;;14.10;;
62554;SDS011;48610;52.144;8.624;2024-03-06T10:21:15;31.38;;;13.68;;
62554;SDS011;48610;52.144;8.624;2024-03-06T10:24:18;29.67;;;14.27;;
62554;SDS011;48610;52.144;8.624;2024-03-06T10:27:25;36.70;;;13.80;;
62554;SDS011;48610;52.144;8.624;2024-03-06T10:30:27;29.02;;;14.68;;
62554;SDS011;48610;52.144;8.624;2024-03-06T10:33:28;31.08;;;15.45;;
62554;SDS011;48610;52.144;8.624;2024-03-06T10:36:31;36.55;;;15.20;;
62554;SDS011;48610;52.144;8.624;2024-03-06T10:39:35;37.22;;;16.20;;
62554;SDS011;48610;52.144;8.624;2024-03-06T10:42:40;35.00;;;15.90;;
62554;SDS011;48610;52.144;8.624;2024-03-06T10:45:49;35.35;;;15.40;;
62554;SDS011;48610;52.144;8.624;2024-03-06T10:48:50;37.97;;;15.00;;
62554;SDS011;48610;52.144;8.624;2024-03-06T10:51:52;37.53;;;16.23;;
62554;SDS011;48610;52.144;8.624;2024-03-06T10:54:54;37.15;;;15.02;;
62554;SDS011;48610;52.144;8.624;2024-03-06T10:57:58;33.72;;;15.75;;
62554;SDS011;48610;52.144;8.624;2024-03-06T11:01:00;38.80;;;15.00;;
62554;SDS011;48610;52.144;8.624;2024-03-06T11:04:02;32.53;;;15.98;;
62554;SDS011;48610;52.144;8.624;2024-03-06T11:07:03;32.72;;;15.07;;
62554;SDS011;48610;52.144;8.624;2024-03-06T11:10:04;28.33;;;15.35;;
62554;SDS011;48610;52.144;8.624;2024-03-06T11:13:10;31.65;;;15.38;;
62554;SDS011;48610;52.144;8.624;2024-03-06T11:16:26;37.58;;;15.63;;
62554;SDS011;48610;52.144;8.624;2024-03-06T11:19:32;35.05;;;14.10;;
62554;SDS011;48610;52.144;8.624;2024-03-06T11:26:04;32.40;;;14.27;;
62554;SDS011;48610;52.144;8.624;2024-03-06T11:29:06;29.88;;;14.07;;
62554;SDS011;48610;52.144;8.624;2024-03-06T11:32:07;29.77;;;14.35;;
62554;SDS011;48610;52.144;8.624;2024-03-06T11:35:08;27.00;;;13.23;;
62554;SDS011;48610;52.144;8.624;2024-03-06T11:38:12;28.23;;;12.15;;
62554;SDS011;48610;52.144;8.624;2024-03-06T11:41:12;25.15;;;12.70;;
62554;SDS011;48610;52.144;8.624;2024-03-06T11:44:17;25.40;;;13.15;;
62554;SDS011;48610;52.144;8.624;2024-03-06T11:47:21;21.80;;;12.90;;
62554;SDS011;48610;52.144;8.624;2024-03-06T11:50:22;27.50;;;12.70;;
62554;SDS011;48610;52.144;8.624;2024-03-06T11:53:23;19.90;;;11.57;;
62554;SDS011;48610;52.144;8.624;2024-03-06T11:56:25;20.75;;;12.18;;
62554;SDS011;48610;52.144;8.624;2024-03-06T11:59:29;20.63;;;11.57;;
62554;SDS011;48610;52.144;8.624;2024-03-06T12:02:38;24.27;;;12.27;;
62554;SDS011;48610;52.144;8.624;2024-03-06T12:05:39;18.73;;;11.93;;
62554;SDS011;48610;52.144;8.624;2024-03-06T12:08:39;26.15;;;11.70;;
62554;SDS011;48610;52.144;8.624;2024-03-06T12:11:40;22.42;;;11.60;;
62554;SDS011;48610;52.144;8.624;2024-03-06T12:14:43;19.48;;;11.57;;
62554;SDS011;48610;52.144;8.624;2024-03-06T12:17:55;20.42;;;11.48;;
62554;SDS011;48610;52.144;8.624;2024-03-06T12:20:55;18.92;;;11.68;;
62554;SDS011;48610;52.144;8.624;2024-03-06T12:24:06;24.30;;;12.20;;
62554;SDS011;48610;52.144;8.624;2024-03-06T12:27:08;23.70;;;11.68;;
62554;SDS011;48610;52.144;8.624;2024-03-06T12:30:09;21.48;;;11.75;;
62554;SDS011;48610;52.144;8.624;2024-03-06T12:33:16;23.13;;;10.90;;
62554;SDS011;48610;52.144;8.624;2024-03-06T12:36:16;19.85;;;11.82;;
62554;SDS011;48610;52.144;8.624;2024-03-06T12:39:25;21.63;;;12.60;;
62554;SDS011;48610;52.144;8.624;2024-03-06T12:42:26;20.20;;;11.50;;
62554;SDS011;48610;52.144;8.624;2024-03-06T12:45:27;21.75;;;12.60;;
62554;SDS011;48610;52.144;8.624;2024-03-06T12:48:28;23.73;;;13.00;;
62554;SDS011;48610;52.144;8.624;2024-03-06T12:51:30;20.80;;;11.60;;
62554;SDS011;48610;52.144;8.624;2024-03-06T12:54:32;26.55;;;11.48;;
62554;SDS011;48610;52.144;8.624;2024-03-06T12:57:33;25.70;;;11.88;;
62554;SDS011;48610;52.144;8.624;2024-03-06T13:00:34;17.13;;;11.88;;
62554;SDS011;48610;52.144;8.624;2024-03-06T13:03:35;22.88;;;12.27;;
62554;SDS011;48610;52.144;8.624;2024-03-06T13:06:35;19.83;;;11.50;;
62554;SDS011;48610;52.144;8.624;2024-03-06T13:09:36;23.02;;;11.50;;
62554;SDS011;48610;52.144;8.624;2024-03-06T13:12:37;20.10;;;11.98;;
62554;SDS011;48610;52.144;8.624;2024-03-06T13:15:38;23.05;;;12.30;;
62554;SDS011;48610;52.144;8.624;2024-03-06T13:18:39;20.70;;;12.75;;
62554;SDS011;48610;52.144;8.624;2024-03-06T13:21:39;18.67;;;11.00;;
62554;SDS011;48610;52.144;8.624;2024-03-06T13:24:40;19.40;;;11.98;;
62554;SDS011;48610;52.144;8.624;2024-03-06T13:27:40;23.85;;;12.10;;
62554;SDS011;48610;52.144;8.624;2024-03-06T13:30:42;17.85;;;11.18;;
62554;SDS011;48610;52.144;8.624;2024-03-06T13:33:42;19.77;;;11.93;;
62554;SDS011;48610;52.144;8.624;2024-03-06T13:36:43;23.15;;;11.27;;
62554;SDS011;48610;52.144;8.624;2024-03-06T13:39:44;23.40;;;11.15;;
62554;SDS011;48610;52.144;8.624;2024-03-06T13:42:44;19.27;;;11.23;;
62554;SDS011;48610;52.144;8.624;2024-03-06T13:45:49;19.55;;;11.60;;
62554;SDS011;48610;52.144;8.624;2024-03-06T13:48:50;20.33;;;11.48;;
62554;SDS011;48610;52.144;8.624;2024-03-06T13:51:51;17.80;;;11.32;;
62554;SDS011;48610;52.144;8.624;2024-03-06T13:54:51;16.23;;;11.80;;
62554;SDS011;48610;52.144;8.624;2024-03-06T13:57:52;17.50;;;11.40;;
62554;SDS011;48610;52.144;8.624;2024-03-06T14:00:52;24.35;;;11.20;;
62554;SDS011;48610;52.144;8.624;2024-03-06T14:03:53;21.55;;;11.07;;
62554;SDS011;48610;52.144;8.624;2024-03-06T14:06:53;21.00;;;10.80;;
62554;SDS011;48610;52.144;8.624;2024-03-06T14:09:54;22.67;;;11.93;;
62554;SDS011;48610;52.144;8.624;2024-03-06T14:12:56;21.77;;;11.15;;
62554;SDS011;48610;52.144;8.624;2024-03-06T14:15:58;27.90;;;11.15;;
62554;SDS011;48610;52.144;8.624;2024-03-06T14:19:00;23.88;;;11.40;;
62554;SDS011;48610;52.144;8.624;2024-03-06T14:22:01;16.85;;;10.57;;
62554;SDS011;48610;52.144;8.624;2024-03-06T14:25:02;14.90;;;10.15;;
62554;SDS011;48610;52.144;8.624;2024-03-06T14:28:02;14.68;;;10.63;;
62554;SDS011;48610;52.144;8.624;2024-03-06T14:31:05;18.60;;;11.10;;
62554;SDS011;48610;52.144;8.624;2024-03-06T14:34:05;19.75;;;11.40;;
62554;SDS011;48610;52.144;8.624;2024-03-06T14:37:06;17.08;;;10.65;;
62554;SDS011;48610;52.144;8.624;2024-03-06T14:40:07;21.40;;;10.77;;
62554;SDS011;48610;52.144;8.624;2024-03-06T14:43:09;16.67;;;10.38;;
62554;SDS011;48610;52.144;8.624;2024-03-06T14:46:10;17.80;;;10.93;;
62554;SDS011;48610;52.144;8.624;2024-03-06T14:49:10;17.70;;;10.88;;
62554;SDS011;48610;52.144;8.624;2024-03-06T14:52:11;19.08;;;11.02;;
62554;SDS011;48610;52.144;8.624;2024-03-06T14:55:15;17.30;;;11.02;;
62554;SDS011;48610;52.144;8.624;2024-03-06T14:58:16;16.10;;;9.88;;
62554;SDS011;48610;52.144;8.624;2024-03-06T15:01:17;18.95;;;10.57;;
62554;SDS011;48610;52.144;8.624;2024-03-06T15:04:18;16.48;;;9.90;;
62554;SDS011;48610;52.144;8.624;2024-03-06T15:07:18;19.00;;;10.10;;
62554;SDS011;48610;52.144;8.624;2024-03-06T15:10:19;17.52;;;10.60;;
62554;SDS011;48610;52.144;8.624;2024-03-06T15:13:20;16.35;;;10.02;;
62554;SDS011;48610;52.144;8.624;2024-03-06T15:16:22;13.65;;;9.52;;
62554;SDS011;48610;52.144;8.624;2024-03-06T15:19:24;15.50;;;9.70;;
62554;SDS011;48610;52.144;8.624;2024-03-06T15:22:25;17.25;;;9.95;;
62554;SDS011;48610;52.144;8.624;2024-03-06T15:25:26;21.33;;;10.38;;
62554;SDS011;48610;52.144;8.624;2024-03-06T15:28:26;18.45;;;10.43;;
62554;SDS011;48610;52.144;8.624;2024-03-06T15:31:27;14.07;;;10.05;;
62554;SDS011;48610;52.144;8.624;2024-03-06T15:34:27;15.98;;;10.73;;
62554;SDS011;48610;52.144;8.624;2024-03-06T15:37:28;19.42;;;10.50;;
62554;SDS011;48610;52.144;8.624;2024-03-06T15:40:29;21.63;;;10.20;;
62554;SDS011;48610;52.144;8.624;2024-03-06T15:43:30;18.40;;;10.43;;
62554;SDS011;48610;52.144;8.624;2024-03-06T15:46:30;17.83;;;9.95;;
62554;SDS011;48610;52.144;8.624;2024-03-06T15:49:33;16.88;;;10.50;;
62554;SDS011;48610;52.144;8.624;2024-03-06T15:52:33;16.33;;;10.50;;
62554;SDS011;48610;52.144;8.624;2024-03-06T15:55:34;19.42;;;10.73;;
62554;SDS011;48610;52.144;8.624;2024-03-06T15:58:35;17.85;;;10.15;;
62554;SDS011;48610;52.144;8.624;2024-03-06T16:01:36;17.10;;;10.25;;
62554;SDS011;48610;52.144;8.624;2024-03-06T16:04:36;19.13;;;9.75;;
62554;SDS011;48610;52.144;8.624;2024-03-06T16:07:37;15.85;;;9.85;;
62554;SDS011;48610;52.144;8.624;2024-03-06T16:10:38;19.35;;;10.27;;
62554;SDS011;48610;52.144;8.624;2024-03-06T16:13:38;16.20;;;9.70;;
62554;SDS011;48610;52.144;8.624;2024-03-06T16:16:39;17.65;;;10.52;;
62554;SDS011;48610;52.144;8.624;2024-03-06T16:19:41;17.75;;;10.40;;
62554;SDS011;48610;52.144;8.624;2024-03-06T16:22:42;17.00;;;9.90;;
62554;SDS011;48610;52.144;8.624;2024-03-06T16:25:42;17.83;;;11.00;;
62554;SDS011;48610;52.144;8.624;2024-03-06T16:28:43;13.63;;;9.90;;
62554;SDS011;48610;52.144;8.624;2024-03-06T16:31:44;17.95;;;10.05;;
62554;SDS011;48610;52.144;8.624;2024-03-06T16:34:45;15.95;;;9.93;;
62554;SDS011;48610;52.144;8.624;2024-03-06T16:37:45;15.85;;;10.38;;
62554;SDS011;48610;52.144;8.624;2024-03-06T16:40:49;21.13;;;10.82;;
62554;SDS011;48610;52.144;8.624;2024-03-06T16:43:49;15.25;;;9.90;;
62554;SDS011;48610;52.144;8.624;2024-03-06T16:46:51;14.27;;;9.75;;
62554;SDS011;48610;52.144;8.624;2024-03-06T16:49:51;18.20;;;9.98;;
62554;SDS011;48610;52.144;8.624;2024-03-06T16:52:52;19.52;;;10.05;;
62554;SDS011;48610;52.144;8.624;2024-03-06T16:55:52;19.77;;;9.48;;
62554;SDS011;48610;52.144;8.624;2024-03-06T16:58:53;15.40;;;9.40;;
62554;SDS011;48610;52.144;8.624;2024-03-06T17:01:54;13.48;;;9.93;;
62554;SDS011;48610;52.144;8.624;2024-03-06T17:04:56;19.33;;;9.32;;
62554;SDS011;48610;52.144;8.624;2024-03-06T17:07:56;13.48;;;9.00;;
62554;SDS011;48610;52.144;8.624;2024-03-06T17:10:58;14.32;;;9.07;;
62554;SDS011;48610;52.144;8.624;2024-03-06T17:13:58;14.45;;;9.35;;
62554;SDS011;48610;52.144;8.624;2024-03-06T17:16:59;18.58;;;9.00;;
62554;SDS011;48610;52.144;8.624;2024-03-06T17:20:00;19.55;;;9.55;;
62554;SDS011;48610;52.144;8.624;2024-03-06T17:23:01;13.52;;;9.43;;
62554;SDS011;48610;52.144;8.624;2024-03-06T17:26:03;14.18;;;8.82;;
62554;SDS011;48610;52.144;8.624;2024-03-06T17:29:04;17.05;;;9.57;;
62554;SDS011;48610;52.144;8.624;2024-03-06T17:32:05;19.65;;;9.30;;
62554;SDS011;48610;52.144;8.624;2024-03-06T17:35:05;18.38;;;9.50;;
62554;SDS011;48610;52.144;8.624;2024-03-06T17:38:08;15.05;;;9.88;;
62554;SDS011;48610;52.144;8.624;2024-03-06T17:41:10;20.40;;;9.80;;
62554;SDS011;48610;52.144;8.624;2024-03-06T17:44:10;19.55;;;8.93;;
62554;SDS011;48610;52.144;8.624;2024-03-06T17:47:11;14.40;;;9.75;;
62554;SDS011;48610;52.144;8.624;2024-03-06T17:50:11;15.18;;;10.00;;